ADDS METAR Data INFO
IDs: Format: Raw Decoded Include TAF

Data at: 0543 UTC 11 Dec 2017

KFNB 110453Z AUTO 18006KT 10SM CLR 01/M07 A3009 RMK AO2 SLP193 T00061067 $
KFNB 110353Z AUTO 06003KT 10SM CLR M01/M07 A3010 RMK AO2 SLP198 T10061067 $
KFNB 110253Z AUTO 00000KT 10SM CLR 03/M06 A3011 RMK AO2 SLP202 T00331061 58004 $
KFNB 110153Z AUTO 23005KT 10SM CLR 07/M06 A3012 RMK AO2 SLP204 T00671061 $
KFNB 110053Z AUTO 00000KT 10SM CLR 08/M06 A3011 RMK AO2 SLP203 T00831061 $
KFNB 102353Z AUTO 32003KT 10SM CLR 08/M06 A3012 RMK AO2 SLP206 T00831061 10139 20083 51007
KFNB 102253Z AUTO 31008KT 10SM CLR 10/M05 A3012 RMK AO2 SLP202 T01001050
KFNB 102153Z AUTO 31009KT 10SM CLR 13/M05 A3011 RMK AO2 SLP199 T01331050
KFNB 102053Z AUTO 31007KT 10SM CLR 14/M05 A3010 RMK AO2 SLP196 T01391050 56004
KFNB 101953Z AUTO 29013G19KT 10SM CLR 13/M05 A3010 RMK AO2 SLP198 T01281050
KFNB 101853Z AUTO 29014KT 10SM CLR 12/M04 A3011 RMK AO2 SLP202 T01171044
KFNB 101753Z AUTO 34012KT 10SM CLR 11/M05 A3011 RMK AO2 SLP203 T01061050 10106 20006 50005
KFNB 101653Z AUTO 33012G23KT 10SM CLR 09/M04 A3012 RMK AO2 SLP207 T00941044
KFNB 101553Z AUTO 31013KT 10SM CLR 08/M05 A3012 RMK AO2 SLP206 T00781050
KFNB 101453Z AUTO 28010KT 10SM CLR 04/M06 A3010 RMK AO2 SLP200 T00441061 53018
KFNB 101353Z AUTO 28011KT 10SM CLR 02/M07 A3007 RMK AO2 SLP193 T00221067
KFNB 101253Z AUTO 26010KT 10SM CLR 01/M07 A3006 RMK AO2 SLP186 T00111067
KFNB 101153Z AUTO 27012KT 10SM CLR 02/M07 A3004 RMK AO2 SLP181 T00171067 10022 21056 53003
KFNB 101053Z AUTO 28010KT 10SM CLR 01/M07 A3004 RMK AO2 SLP179 T00061067
KFNB 100953Z AUTO 28009KT 10SM CLR 01/M07 A3003 RMK AO2 SLP175 T00111067
KFNB 100853Z AUTO 26010KT 10SM CLR 02/M06 A3003 RMK AO2 SLP177 T00171061 56015
KFNB 100753Z AUTO 28004KT 10SM CLR M02/M07 A3004 RMK AO2 SLP181 T10221072
KFNB 100653Z AUTO 11003KT 10SM CLR M03/M07 A3007 RMK AO2 SLP191 T10281072
KFNB 100553Z AUTO 17005KT 10SM CLR M04/M08 A3008 RMK AO2 SLP196 T10441083 10000 21056 400391056 56027
KFNB 100453Z AUTO 20005KT 10SM CLR M03/M08 A3011 RMK AO2 SLP205 T10331078
KFNB 100353Z AUTO 20007KT 10SM CLR M04/M08 A3013 RMK AO2 SLP214 T10391083
KFNB 100253Z AUTO 21007KT 10SM CLR M03/M08 A3016 RMK AO2 SLP224 T10281078 58013
KFNB 100153Z AUTO 20006KT 10SM CLR M02/M08 A3018 RMK AO2 SLP232 T10221078
KFNB 100053Z AUTO 00000KT 10SM CLR M01/M07 A3020 RMK AO2 SLP238 T10111072
KFNB 092353Z AUTO 30003KT 10SM CLR 00/M07 A3020 RMK AO2 SLP236 T00001072 10039 21011 50009
KFNB 092253Z AUTO 31006KT 10SM CLR 01/M07 A3020 RMK AO2 SLP236 T00061072
KFNB 092153Z AUTO 32009KT 10SM CLR 03/M07 A3020 RMK AO2 SLP233 T00331072
KFNB 092053Z AUTO 32010KT 10SM CLR 03/M07 A3017 RMK AO2 SLP225 T00331072 58004
KFNB 091953Z AUTO 34011G18KT 10SM CLR 03/M07 A3018 RMK AO2 SLP227 T00331072
KFNB 091853Z AUTO 33011G17KT 10SM CLR 02/M07 A3018 RMK AO2 SLP229 T00221072
KFNB 091753Z AUTO 33011KT 10SM CLR 02/M07 A3018 RMK AO2 SLP229 T00171067 10017 21022 50022